Time;durP1;ratioP1;P1;durP2;ratioP2;P2;SDS_P1;SDS_P2;PMS_P1;PMS_P2;Temp;Humidity;BMP_temperature;BMP_pressure;BME280_temperature;BME280_humidity;BME280_pressure;Samples;Min_cycle;Max_cycle;Signal;HPM_P1;HPM_P2
2022/04/19 00:00:36;;;;;;;3.80;3.50;;;;;;;;;;5013225;28;20618;-53
2022/04/19 00:03:02;;;;;;;3.90;3.60;;;;;;;;;;5014993;28;20214;-53
2022/04/19 00:05:29;;;;;;;4.20;3.90;;;;;;;;;;5010696;28;20587;-54
2022/04/19 00:07:55;;;;;;;3.87;3.57;;;;;;;;;;5023433;28;20577;-54
2022/04/19 00:10:22;;;;;;;4.43;3.87;;;;;;;;;;5011647;28;20194;-54
2022/04/19 00:12:48;;;;;;;4.60;3.90;;;;;;;;;;5013313;28;20259;-55
2022/04/19 00:15:17;;;;;;;4.37;3.97;;;;;;;;;;5009858;28;20676;-53
2022/04/19 00:17:43;;;;;;;3.93;3.63;;;;;;;;;;5013423;28;20181;-53
2022/04/19 00:20:13;;;;;;;4.00;3.60;;;;;;;;;;5010380;28;20198;-53
2022/04/19 00:22:39;;;;;;;3.90;3.50;;;;;;;;;;5011884;28;20632;-53
2022/04/19 00:25:06;;;;;;;4.37;3.87;;;;;;;;;;5008195;28;20214;-53
2022/04/19 00:27:33;;;;;;;3.83;3.43;;;;;;;;;;5011101;28;20206;-53
2022/04/19 00:29:59;;;;;;;3.73;3.40;;;;;;;;;;5007347;28;20197;-53
2022/04/19 00:32:28;;;;;;;5.60;4.00;;;;;;;;;;5010757;28;20234;-53
2022/04/19 00:34:54;;;;;;;3.97;3.67;;;;;;;;;;5013704;28;20201;-53
2022/04/19 00:37:23;;;;;;;4.20;3.80;;;;;;;;;;5016009;28;20179;-54
2022/04/19 00:39:49;;;;;;;4.13;3.73;;;;;;;;;;5013508;28;20433;-53
2022/04/19 00:42:17;;;;;;;4.33;3.70;;;;;;;;;;5009264;28;20198;-52
2022/04/19 00:44:43;;;;;;;4.23;3.83;;;;;;;;;;5013864;28;20305;-53
2022/04/19 00:47:10;;;;;;;5.37;4.47;;;;;;;;;;5009185;28;20223;-53
2022/04/19 00:49:38;;;;;;;4.03;3.63;;;;;;;;;;5012794;28;20240;-53
2022/04/19 00:52:05;;;;;;;5.03;3.70;;;;;;;;;;5013837;28;20206;-53
2022/04/19 00:54:31;;;;;;;4.20;3.80;;;;;;;;;;5009876;28;20179;-54
2022/04/19 00:56:57;;;;;;;4.47;3.90;;;;;;;;;;5010036;28;20221;-53
2022/04/19 00:59:24;;;;;;;4.03;3.60;;;;;;;;;;5014525;28;20684;-54
2022/04/19 01:01:51;;;;;;;3.90;3.50;;;;;;;;;;5012681;28;20182;-53
2022/04/19 01:04:18;;;;;;;4.00;3.60;;;;;;;;;;5007902;28;20609;-53
2022/04/19 01:06:44;;;;;;;3.90;3.63;;;;;;;;;;5016413;28;20265;-53
2022/04/19 01:09:11;;;;;;;4.67;4.07;;;;;;;;;;5025411;28;20189;-54
2022/04/19 01:14:24;;;;;;;3.50;3.20;;;;;;;;;;5015141;28;20236;-53
2022/04/19 01:16:50;;;;;;;3.53;3.23;;;;;;;;;;5012775;28;20186;-53
2022/04/19 01:19:17;;;;;;;3.80;3.40;;;;;;;;;;5032447;28;20282;-53
2022/04/19 01:21:44;;;;;;;4.33;3.93;;;;;;;;;;5015632;28;20198;-53
2022/04/19 01:24:15;;;;;;;6.07;4.40;;;;;;;;;;5010557;28;20578;-53
2022/04/19 01:26:41;;;;;;;3.87;3.57;;;;;;;;;;5008644;28;20205;-54
2022/04/19 01:29:09;;;;;;;4.67;3.63;;;;;;;;;;5006877;28;20182;-55
2022/04/19 01:31:35;;;;;;;3.73;3.43;;;;;;;;;;5015243;28;20760;-54
2022/04/19 01:34:02;;;;;;;4.10;3.80;;;;;;;;;;5015412;28;20182;-53
2022/04/19 01:36:29;;;;;;;4.70;4.20;;;;;;;;;;5007342;28;20210;-54
2022/04/19 01:38:55;;;;;;;4.10;3.70;;;;;;;;;;5010211;28;20186;-53
2022/04/19 01:41:21;;;;;;;3.80;3.43;;;;;;;;;;5010854;28;20190;-54
2022/04/19 01:43:47;;;;;;;4.03;3.57;;;;;;;;;;4998942;28;20206;-53
2022/04/19 01:46:17;;;;;;;4.47;4.07;;;;;;;;;;5014055;28;20205;-53
2022/04/19 01:48:43;;;;;;;3.87;3.33;;;;;;;;;;5027672;28;20471;-53
2022/04/19 01:51:12;;;;;;;4.27;3.40;;;;;;;;;;5016143;28;20188;-53
2022/04/19 01:53:40;;;;;;;4.13;3.70;;;;;;;;;;5023518;28;20476;-53
2022/04/19 01:56:07;;;;;;;4.10;3.70;;;;;;;;;;5006291;28;20248;-54
2022/04/19 01:58:33;;;;;;;4.47;4.07;;;;;;;;;;5011043;28;20214;-53
2022/04/19 02:01:00;;;;;;;4.43;3.97;;;;;;;;;;5007085;28;20243;-53
2022/04/19 02:03:26;;;;;;;5.33;4.83;;;;;;;;;;5015603;28;20685;-53
2022/04/19 02:05:52;;;;;;;4.10;3.70;;;;;;;;;;5015322;28;20182;-54
2022/04/19 02:08:18;;;;;;;4.47;3.37;;;;;;;;;;5014282;28;20272;-54
2022/04/19 02:10:46;;;;;;;4.47;4.07;;;;;;;;;;5007968;28;20179;-55
2022/04/19 02:13:13;;;;;;;4.00;3.57;;;;;;;;;;5012768;28;20658;-53
2022/04/19 02:15:39;;;;;;;3.90;3.60;;;;;;;;;;5014584;28;20251;-54
2022/04/19 02:18:05;;;;;;;4.23;3.83;;;;;;;;;;5010970;28;20297;-54
2022/04/19 02:20:32;;;;;;;4.63;3.90;;;;;;;;;;5006991;28;20183;-53
2022/04/19 02:22:58;;;;;;;4.13;3.60;;;;;;;;;;5013115;28;20193;-53
2022/04/19 02:25:26;;;;;;;4.60;4.20;;;;;;;;;;5009898;28;20190;-55
2022/04/19 02:27:52;;;;;;;5.60;3.80;;;;;;;;;;5019647;28;20205;-53
2022/04/19 02:30:19;;;;;;;4.77;4.27;;;;;;;;;;5014176;28;20191;-54
2022/04/19 02:32:47;;;;;;;4.30;3.90;;;;;;;;;;5008280;28;20315;-54
2022/04/19 02:35:20;;;;;;;4.70;4.30;;;;;;;;;;5006872;28;20574;-53
2022/04/19 02:37:56;;;;;;;4.77;3.80;;;;;;;;;;5010495;28;20555;-53
2022/04/19 02:40:23;;;;;;;4.30;3.90;;;;;;;;;;5009351;28;20216;-54
2022/04/19 02:42:50;;;;;;;4.30;3.90;;;;;;;;;;5008868;28;20186;-53
2022/04/19 02:45:19;;;;;;;5.47;4.60;;;;;;;;;;5009306;28;22038;-53
2022/04/19 02:47:46;;;;;;;4.33;3.97;;;;;;;;;;5008479;28;20190;-54
2022/04/19 02:50:12;;;;;;;4.43;4.03;;;;;;;;;;5009395;28;20186;-54
2022/04/19 02:52:38;;;;;;;5.30;4.13;;;;;;;;;;5008917;28;20190;-54
2022/04/19 02:55:05;;;;;;;4.10;3.77;;;;;;;;;;5007630;28;20206;-54
2022/04/19 02:57:33;;;;;;;4.23;3.83;;;;;;;;;;5013701;28;20284;-53
2022/04/19 02:59:59;;;;;;;4.30;3.90;;;;;;;;;;5008923;28;20186;-54
2022/04/19 03:02:25;;;;;;;5.13;4.37;;;;;;;;;;5007644;28;20186;-54
2022/04/19 03:04:52;;;;;;;4.27;3.93;;;;;;;;;;5004236;28;20268;-53
2022/04/19 03:07:19;;;;;;;4.67;4.10;;;;;;;;;;5006998;28;20170;-53
2022/04/19 03:09:45;;;;;;;4.67;4.27;;;;;;;;;;5022388;28;20196;-54
2022/04/19 03:12:14;;;;;;;3.90;3.60;;;;;;;;;;5014350;28;20182;-53
2022/04/19 03:14:41;;;;;;;4.63;4.23;;;;;;;;;;5006700;28;20257;-54
2022/04/19 03:17:07;;;;;;;18.77;17.87;;;;;;;;;;5009509;28;20201;-54
2022/04/19 03:19:34;;;;;;;5.63;3.90;;;;;;;;;;5007728;28;20190;-54
2022/04/19 03:22:01;;;;;;;6.23;4.30;;;;;;;;;;5009771;28;20631;-53
2022/04/19 03:29:57;;;;;;;4.90;4.40;;;;;;;;;;5005780;28;20181;-54
2022/04/19 03:32:23;;;;;;;5.50;3.80;;;;;;;;;;5010907;28;20232;-54
2022/04/19 03:34:50;;;;;;;4.97;4.30;;;;;;;;;;5021724;28;20194;-54
2022/04/19 03:37:19;;;;;;;3.60;3.30;;;;;;;;;;5009886;28;20182;-54
2022/04/19 03:39:46;;;;;;;4.00;3.70;;;;;;;;;;5004095;28;20201;-54
2022/04/19 03:42:12;;;;;;;5.03;4.20;;;;;;;;;;5011301;28;20190;-54
2022/04/19 03:44:38;;;;;;;4.50;4.00;;;;;;;;;;5012622;28;20328;-54
2022/04/19 03:47:08;;;;;;;4.53;4.10;;;;;;;;;;5010826;28;20182;-54
2022/04/19 03:49:35;;;;;;;4.57;4.23;;;;;;;;;;5006997;28;20182;-54
2022/04/19 03:52:01;;;;;;;4.83;4.30;;;;;;;;;;5011630;28;20186;-53
2022/04/19 03:54:34;;;;;;;4.93;4.13;;;;;;;;;;5014692;28;20207;-54
2022/04/19 03:57:11;;;;;;;5.70;5.20;;;;;;;;;;5011670;28;20241;-54
2022/04/19 03:59:38;;;;;;;3.83;3.53;;;;;;;;;;5011098;28;20325;-55
2022/04/19 04:02:07;;;;;;;5.50;5.00;;;;;;;;;;5013879;28;20658;-55
2022/04/19 04:04:37;;;;;;;4.67;4.10;;;;;;;;;;5003540;28;20214;-55
2022/04/19 04:07:07;;;;;;;4.60;4.20;;;;;;;;;;5006595;28;20190;-54
2022/04/19 04:09:35;;;;;;;4.30;4.00;;;;;;;;;;5010531;28;20188;-55
2022/04/19 04:12:02;;;;;;;4.43;3.80;;;;;;;;;;5016212;28;20642;-54
2022/04/19 04:14:32;;;;;;;6.27;5.77;;;;;;;;;;5012225;28;20188;-54
2022/04/19 04:16:58;;;;;;;5.00;4.30;;;;;;;;;;5012897;28;20300;-53
2022/04/19 04:19:27;;;;;;;4.87;4.37;;;;;;;;;;5011893;28;20311;-54
2022/04/19 04:21:54;;;;;;;5.20;4.40;;;;;;;;;;5011188;28;20216;-54
2022/04/19 04:24:20;;;;;;;4.90;4.43;;;;;;;;;;5015295;28;20662;-54
2022/04/19 04:26:47;;;;;;;5.43;4.37;;;;;;;;;;5015791;28;20189;-54
2022/04/19 04:29:14;;;;;;;6.57;6.07;;;;;;;;;;5008260;28;20319;-54
2022/04/19 04:31:40;;;;;;;5.57;3.87;;;;;;;;;;5011659;28;20705;-55
2022/04/19 04:34:07;;;;;;;4.75;4.13;;;;;;;;;;5016735;28;20461;-55
2022/04/19 04:36:34;;;;;;;4.80;4.40;;;;;;;;;;5017408;28;20503;-54
2022/04/19 04:39:01;;;;;;;4.80;4.40;;;;;;;;;;5026971;28;20639;-54
2022/04/19 04:41:27;;;;;;;5.10;4.60;;;;;;;;;;5017945;28;20189;-54
2022/04/19 04:43:53;;;;;;;4.70;4.30;;;;;;;;;;5015971;28;20872;-55
2022/04/19 04:51:49;;;;;;;4.63;4.23;;;;;;;;;;5011555;28;20254;-54
2022/04/19 04:54:15;;;;;;;5.57;3.77;;;;;;;;;;5012298;28;20186;-55
2022/04/19 04:56:41;;;;;;;5.03;4.53;;;;;;;;;;5030535;28;20705;-53
2022/04/19 04:59:08;;;;;;;4.43;4.03;;;;;;;;;;5023707;28;20214;-54
2022/04/19 05:01:34;;;;;;;5.07;4.57;;;;;;;;;;5026087;28;20225;-54
2022/04/19 05:04:01;;;;;;;4.77;4.27;;;;;;;;;;5007699;28;20624;-53
2022/04/19 05:06:27;;;;;;;4.60;4.20;;;;;;;;;;5015085;28;20190;-54
2022/04/19 05:08:53;;;;;;;4.57;4.17;;;;;;;;;;5010134;28;20188;-54
2022/04/19 05:11:19;;;;;;;5.40;4.70;;;;;;;;;;5018171;28;20182;-54
2022/04/19 05:13:46;;;;;;;4.83;4.27;;;;;;;;;;5008101;28;20193;-54
2022/04/19 05:16:12;;;;;;;6.30;4.20;;;;;;;;;;5008855;28;20351;-55
2022/04/19 05:18:38;;;;;;;5.63;4.53;;;;;;;;;;5008878;28;20204;-54
2022/04/19 05:21:07;;;;;;;5.23;4.43;;;;;;;;;;5013083;28;20182;-55
2022/04/19 05:23:34;;;;;;;5.27;4.77;;;;;;;;;;5012262;28;20718;-54
2022/04/19 05:26:00;;;;;;;4.97;4.47;;;;;;;;;;5024571;28;20185;-54
2022/04/19 05:28:27;;;;;;;5.53;4.90;;;;;;;;;;5008636;28;20181;-55
2022/04/19 05:30:54;;;;;;;5.00;4.50;;;;;;;;;;5012031;28;20669;-54
2022/04/19 05:33:20;;;;;;;4.77;4.23;;;;;;;;;;5012458;28;20194;-54
2022/04/19 05:35:46;;;;;;;5.03;3.93;;;;;;;;;;5017079;28;20561;-54
2022/04/19 05:38:13;;;;;;;5.33;4.80;;;;;;;;;;5020809;28;20189;-54
2022/04/19 05:40:40;;;;;;;4.83;4.40;;;;;;;;;;5004461;28;20822;-55
2022/04/19 05:43:06;;;;;;;5.50;4.70;;;;;;;;;;5010295;28;20642;-54
2022/04/19 05:45:32;;;;;;;5.17;4.60;;;;;;;;;;5016980;28;20574;-53
2022/04/19 05:48:01;;;;;;;5.53;4.67;;;;;;;;;;5016870;28;20228;-54
2022/04/19 05:50:28;;;;;;;5.10;4.10;;;;;;;;;;5011134;28;20733;-55
2022/04/19 05:52:54;;;;;;;4.50;4.10;;;;;;;;;;5010254;28;20564;-54
2022/04/19 05:55:20;;;;;;;5.23;4.73;;;;;;;;;;5013683;28;20633;-54
2022/04/19 05:57:46;;;;;;;5.90;4.87;;;;;;;;;;5008677;28;20293;-54
2022/04/19 06:00:12;;;;;;;5.50;4.53;;;;;;;;;;5011104;28;20202;-54
2022/04/19 06:05:24;;;;;;;5.87;4.40;;;;;;;;;;5006417;28;20245;-55
2022/04/19 06:07:52;;;;;;;5.47;4.80;;;;;;;;;;5017156;28;20798;-54
2022/04/19 06:10:18;;;;;;;6.30;4.60;;;;;;;;;;5008385;28;20182;-54
2022/04/19 06:12:45;;;;;;;5.27;4.57;;;;;;;;;;5007472;28;20178;-53
2022/04/19 06:15:11;;;;;;;4.67;4.23;;;;;;;;;;5011905;28;20189;-54
2022/04/19 06:17:38;;;;;;;5.30;4.80;;;;;;;;;;5010925;28;20217;-54
2022/04/19 06:20:05;;;;;;;5.67;5.00;;;;;;;;;;5006457;28;20273;-53
2022/04/19 06:22:31;;;;;;;7.57;4.97;;;;;;;;;;5010385;28;20909;-54
2022/04/19 06:24:58;;;;;;;5.73;5.13;;;;;;;;;;5007264;28;20205;-53
2022/04/19 06:27:25;;;;;;;5.70;5.10;;;;;;;;;;5009800;28;20204;-54
2022/04/19 06:29:52;;;;;;;8.30;4.93;;;;;;;;;;5011856;28;20185;-54
2022/04/19 06:32:22;;;;;;;7.10;6.03;;;;;;;;;;5007352;28;20260;-55
2022/04/19 06:34:53;;;;;;;6.37;4.80;;;;;;;;;;5010432;28;20232;-55
2022/04/19 06:37:20;;;;;;;6.60;4.90;;;;;;;;;;5008297;28;20202;-54
2022/04/19 06:39:46;;;;;;;5.40;4.90;;;;;;;;;;5018106;28;20453;-54
2022/04/19 06:42:13;;;;;;;5.03;4.47;;;;;;;;;;5009034;28;20273;-54
2022/04/19 06:44:39;;;;;;;7.63;5.20;;;;;;;;;;5016255;28;20709;-54
2022/04/19 06:47:08;;;;;;;5.93;4.97;;;;;;;;;;5012797;28;20182;-54
2022/04/19 06:49:34;;;;;;;7.63;4.97;;;;;;;;;;5020034;28;20718;-54
2022/04/19 06:52:05;;;;;;;5.10;4.57;;;;;;;;;;5012011;28;20261;-54
2022/04/19 06:54:31;;;;;;;7.23;5.40;;;;;;;;;;5012248;28;20218;-54
2022/04/19 06:56:57;;;;;;;6.30;5.37;;;;;;;;;;5013002;28;20244;-54
2022/04/19 06:59:25;;;;;;;5.87;4.70;;;;;;;;;;5008915;28;20186;-54
2022/04/19 07:01:52;;;;;;;5.63;4.90;;;;;;;;;;5012216;28;20190;-54
2022/04/19 07:04:18;;;;;;;5.60;5.00;;;;;;;;;;5001590;28;20202;-54
2022/04/19 07:06:44;;;;;;;7.10;5.40;;;;;;;;;;5008936;28;20196;-54
2022/04/19 07:09:10;;;;;;;5.03;4.53;;;;;;;;;;5008146;28;20185;-54
2022/04/19 07:11:37;;;;;;;5.87;5.00;;;;;;;;;;5011609;28;20213;-55
2022/04/19 07:14:04;;;;;;;4.80;4.30;;;;;;;;;;5027205;28;20194;-55
2022/04/19 07:16:30;;;;;;;6.20;4.77;;;;;;;;;;5019604;28;20216;-54
2022/04/19 07:18:56;;;;;;;5.23;4.73;;;;;;;;;;5019647;28;20568;-54
2022/04/19 07:26:53;;;;;;;6.33;5.40;;;;;;;;;;5017004;28;20239;-54
2022/04/19 07:29:19;;;;;;;7.00;5.33;;;;;;;;;;5001957;28;20182;-55
2022/04/19 07:31:46;;;;;;;6.27;5.57;;;;;;;;;;5019179;28;20249;-54
2022/04/19 07:34:13;;;;;;;5.27;4.77;;;;;;;;;;5018247;28;20659;-54
2022/04/19 07:36:42;;;;;;;5.80;5.00;;;;;;;;;;5023862;28;21263;-55
2022/04/19 07:39:08;;;;;;;7.17;6.00;;;;;;;;;;5013677;28;20196;-55
2022/04/19 07:41:35;;;;;;;7.60;5.87;;;;;;;;;;5014928;28;20650;-54
2022/04/19 07:44:02;;;;;;;7.77;5.57;;;;;;;;;;5018162;28;20678;-54
2022/04/19 07:46:28;;;;;;;6.17;5.57;;;;;;;;;;5028763;28;20189;-54
2022/04/19 07:48:55;;;;;;;6.77;5.37;;;;;;;;;;5019801;28;20182;-55
2022/04/19 07:51:21;;;;;;;10.30;5.50;;;;;;;;;;5016740;28;20185;-54
2022/04/19 07:53:47;;;;;;;6.43;5.63;;;;;;;;;;5019128;28;20193;-55
2022/04/19 07:56:13;;;;;;;6.37;5.73;;;;;;;;;;5023463;28;20177;-55
2022/04/19 07:58:42;;;;;;;6.53;5.63;;;;;;;;;;5038077;28;20210;-54
2022/04/19 08:01:10;;;;;;;7.47;6.27;;;;;;;;;;5017566;28;20198;-54
2022/04/19 08:03:36;;;;;;;6.43;5.83;;;;;;;;;;5031324;28;20301;-54
2022/04/19 08:06:03;;;;;;;6.97;6.13;;;;;;;;;;5017354;28;20189;-54
2022/04/19 08:08:29;;;;;;;6.63;5.70;;;;;;;;;;5021096;28;20182;-54
2022/04/19 08:10:55;;;;;;;10.10;5.33;;;;;;;;;;5031744;28;20369;-54
2022/04/19 08:13:21;;;;;;;5.77;5.10;;;;;;;;;;5029785;28;20205;-54
2022/04/19 08:15:47;;;;;;;6.80;5.67;;;;;;;;;;5030494;28;20190;-54
2022/04/19 08:18:14;;;;;;;7.53;5.97;;;;;;;;;;5030121;28;20260;-53
2022/04/19 08:20:41;;;;;;;8.13;5.70;;;;;;;;;;5031934;28;20181;-54
2022/04/19 08:23:10;;;;;;;7.10;5.97;;;;;;;;;;5029805;28;20748;-53
2022/04/19 08:25:36;;;;;;;7.60;6.30;;;;;;;;;;5031391;28;20166;-52
2022/04/19 08:28:03;;;;;;;8.10;6.87;;;;;;;;;;5029870;28;20537;-54
2022/04/19 08:30:29;;;;;;;8.37;6.03;;;;;;;;;;5031165;28;20740;-54
2022/04/19 08:32:55;;;;;;;6.53;5.83;;;;;;;;;;5049005;28;20665;-53
2022/04/19 08:35:21;;;;;;;7.97;6.07;;;;;;;;;;5050647;28;20655;-54
2022/04/19 08:37:48;;;;;;;6.60;5.70;;;;;;;;;;5031775;28;20621;-54
2022/04/19 08:40:15;;;;;;;6.53;5.63;;;;;;;;;;5030937;28;20236;-54
2022/04/19 08:42:43;;;;;;;6.53;5.83;;;;;;;;;;5029635;28;20194;-54
2022/04/19 08:45:10;;;;;;;8.53;6.17;;;;;;;;;;5029901;28;20210;-54
2022/04/19 08:47:41;;;;;;;6.90;6.20;;;;;;;;;;5030521;28;20186;-54
2022/04/19 08:50:12;;;;;;;7.13;6.43;;;;;;;;;;5028619;28;20740;-55
2022/04/19 08:52:38;;;;;;;6.70;6.10;;;;;;;;;;5030544;28;20182;-55
2022/04/19 08:57:54;;;;;;;5.77;5.20;;;;;;;;;;5030670;28;20220;-54
2022/04/19 09:00:22;;;;;;;5.77;5.17;;;;;;;;;;5013091;28;20177;-53
2022/04/19 09:02:48;;;;;;;6.40;5.07;;;;;;;;;;5029775;28;20689;-54
2022/04/19 09:05:14;;;;;;;6.83;5.50;;;;;;;;;;5030238;28;20301;-54
2022/04/19 09:07:41;;;;;;;6.80;5.27;;;;;;;;;;5030319;28;20320;-54
2022/04/19 09:10:14;;;;;;;6.47;5.87;;;;;;;;;;5030787;28;20569;-53
2022/04/19 09:12:55;;;;;;;7.90;5.43;;;;;;;;;;5030207;28;20178;-55
2022/04/19 09:15:21;;;;;;;5.83;5.23;;;;;;;;;;5030437;28;20173;-54
2022/04/19 09:17:48;;;;;;;5.90;5.30;;;;;;;;;;5028128;28;20701;-54
2022/04/19 09:20:16;;;;;;;5.20;4.60;;;;;;;;;;5030588;28;20217;-54
2022/04/19 09:22:43;;;;;;;6.20;4.73;;;;;;;;;;5030078;28;20588;-54
2022/04/19 09:25:24;;;;;;;5.90;5.30;;;;;;;;;;5030343;28;20278;-54
2022/04/19 09:27:50;;;;;;;6.60;5.20;;;;;;;;;;5028547;28;20265;-54
2022/04/19 09:30:23;;;;;;;5.40;4.90;;;;;;;;;;5030573;28;20513;-54
2022/04/19 09:33:02;;;;;;;5.53;5.00;;;;;;;;;;5027653;28;20302;-54
2022/04/19 09:35:36;;;;;;;5.37;4.40;;;;;;;;;;5029377;28;20181;-55
2022/04/19 09:38:03;;;;;;;5.03;4.53;;;;;;;;;;5010122;28;20559;-53
2022/04/19 09:40:36;;;;;;;4.67;4.27;;;;;;;;;;5009996;28;20182;-54
2022/04/19 09:43:10;;;;;;;5.47;4.43;;;;;;;;;;5025019;28;20328;-54
2022/04/19 09:45:50;;;;;;;6.10;4.10;;;;;;;;;;5011606;28;20186;-54
2022/04/19 09:48:20;;;;;;;6.37;4.77;;;;;;;;;;5028509;28;20174;-53
2022/04/19 09:51:02;;;;;;;4.77;4.23;;;;;;;;;;5028719;28;20181;-54
2022/04/19 09:53:30;;;;;;;5.07;4.57;;;;;;;;;;5029328;28;20181;-54
2022/04/19 09:55:58;;;;;;;4.23;3.83;;;;;;;;;;5028382;28;20612;-53
2022/04/19 09:58:24;;;;;;;4.47;4.07;;;;;;;;;;5029323;28;20194;-54
2022/04/19 10:00:51;;;;;;;5.43;4.37;;;;;;;;;;5029906;28;20232;-53
2022/04/19 10:08:54;;;;;;;4.03;3.73;;;;;;;;;;5029424;28;20166;-54
2022/04/19 10:11:21;;;;;;;3.97;3.63;;;;;;;;;;5029485;28;20174;-54
2022/04/19 10:13:47;;;;;;;4.30;4.00;;;;;;;;;;5026313;28;20189;-55
2022/04/19 10:16:15;;;;;;;4.47;4.07;;;;;;;;;;5014658;28;20675;-54
2022/04/19 10:18:44;;;;;;;7.63;4.40;;;;;;;;;;5028135;28;20596;-54
2022/04/19 10:21:13;;;;;;;4.00;3.70;;;;;;;;;;5029315;28;20574;-55
2022/04/19 10:23:40;;;;;;;3.83;3.53;;;;;;;;;;5011196;28;20201;-54
2022/04/19 10:26:12;;;;;;;4.30;3.90;;;;;;;;;;5027808;28;20281;-55
2022/04/19 10:28:39;;;;;;;4.37;4.07;;;;;;;;;;5028713;28;20183;-55
2022/04/19 10:31:05;;;;;;;4.37;3.77;;;;;;;;;;5027504;28;20622;-56
2022/04/19 10:33:44;;;;;;;3.47;3.17;;;;;;;;;;5026560;28;20266;-55
2022/04/19 10:36:11;;;;;;;4.83;4.27;;;;;;;;;;5029089;28;20186;-54
2022/04/19 10:38:38;;;;;;;4.17;3.77;;;;;;;;;;5026994;28;20182;-54
2022/04/19 10:41:04;;;;;;;4.53;4.13;;;;;;;;;;5011288;28;20847;-55
2022/04/19 10:43:30;;;;;;;4.17;3.87;;;;;;;;;;5027220;28;20190;-55
2022/04/19 10:46:15;;;;;;;5.13;3.70;;;;;;;;;;5029007;28;20544;-55
2022/04/19 10:49:00;;;;;;;4.67;3.83;;;;;;;;;;5026108;28;20174;-55
2022/04/19 10:51:29;;;;;;;4.50;4.10;;;;;;;;;;5028472;28;20700;-54
2022/04/19 10:53:55;;;;;;;3.87;3.53;;;;;;;;;;5028441;28;20177;-55
2022/04/19 10:56:21;;;;;;;4.77;3.60;;;;;;;;;;5029003;28;20185;-55
2022/04/19 10:58:48;;;;;;;5.60;3.53;;;;;;;;;;5028097;28;20194;-55
2022/04/19 11:01:32;;;;;;;4.07;3.77;;;;;;;;;;5027382;28;20640;-55
2022/04/19 11:04:00;;;;;;;3.77;3.47;;;;;;;;;;5027288;28;20216;-54
2022/04/19 11:06:34;;;;;;;3.90;3.60;;;;;;;;;;5028715;28;20552;-54
2022/04/19 11:09:20;;;;;;;4.10;3.70;;;;;;;;;;5026789;28;20192;-55
2022/04/19 11:11:47;;;;;;;4.27;3.77;;;;;;;;;;5028666;28;20240;-55
2022/04/19 11:14:18;;;;;;;4.40;4.00;;;;;;;;;;5026816;28;20187;-55
2022/04/19 11:16:45;;;;;;;4.13;3.73;;;;;;;;;;5026802;28;20193;-55
2022/04/19 11:19:16;;;;;;;4.40;4.00;;;;;;;;;;5030143;28;20653;-55
2022/04/19 11:21:51;;;;;;;5.00;4.10;;;;;;;;;;5032253;28;20194;-54
2022/04/19 11:24:36;;;;;;;4.27;3.90;;;;;;;;;;5031937;28;20697;-55
2022/04/19 11:27:02;;;;;;;3.90;3.60;;;;;;;;;;5030935;28;20690;-56
2022/04/19 11:29:46;;;;;;;4.53;4.13;;;;;;;;;;5030555;28;20171;-54
2022/04/19 11:32:12;;;;;;;4.80;4.30;;;;;;;;;;5032154;28;20243;-55
2022/04/19 11:34:38;;;;;;;4.53;4.13;;;;;;;;;;5029568;28;20197;-55
2022/04/19 11:37:06;;;;;;;4.93;4.40;;;;;;;;;;5032353;28;20190;-55
2022/04/19 11:48:01;;;;;;;4.90;4.33;;;;;;;;;;5031618;28;20217;-55
2022/04/19 11:50:29;;;;;;;4.93;4.53;;;;;;;;;;5030209;28;20281;-55
2022/04/19 11:52:55;;;;;;;4.37;4.00;;;;;;;;;;5032297;28;20189;-54
2022/04/19 11:55:25;;;;;;;5.60;4.70;;;;;;;;;;5031841;28;20270;-55
2022/04/19 11:58:07;;;;;;;5.00;4.50;;;;;;;;;;5029983;28;20693;-55
2022/04/19 12:00:33;;;;;;;4.63;4.23;;;;;;;;;;5031698;28;20173;-55
2022/04/19 12:03:03;;;;;;;5.37;4.50;;;;;;;;;;5029976;28;20182;-55
2022/04/19 12:05:32;;;;;;;6.53;4.90;;;;;;;;;;5031409;28;20662;-55
2022/04/19 12:07:58;;;;;;;5.33;4.83;;;;;;;;;;5031376;28;20656;-55
2022/04/19 12:10:24;;;;;;;7.00;4.43;;;;;;;;;;5030216;28;20669;-55
2022/04/19 12:12:51;;;;;;;4.23;3.83;;;;;;;;;;5031405;28;20186;-55
2022/04/19 12:15:36;;;;;;;4.27;3.87;;;;;;;;;;5029879;28;20189;-55
2022/04/19 12:18:02;;;;;;;6.53;3.90;;;;;;;;;;5045629;28;20196;-55
2022/04/19 12:20:28;;;;;;;4.80;4.30;;;;;;;;;;5029499;28;20177;-56
2022/04/19 12:22:55;;;;;;;6.80;6.13;;;;;;;;;;5029855;28;20781;-55
2022/04/19 12:25:24;;;;;;;4.57;4.17;;;;;;;;;;5031239;28;20223;-55
2022/04/19 12:27:53;;;;;;;4.90;4.47;;;;;;;;;;5029488;28;20210;-55
2022/04/19 12:30:20;;;;;;;5.33;4.83;;;;;;;;;;5030101;28;20178;-55
2022/04/19 12:32:54;;;;;;;7.13;4.40;;;;;;;;;;5028594;28;20336;-54
2022/04/19 12:35:37;;;;;;;4.47;3.70;;;;;;;;;;5030686;28;20220;-55
2022/04/19 12:38:08;;;;;;;6.70;4.47;;;;;;;;;;5029723;28;20261;-58
2022/04/19 12:40:34;;;;;;;5.80;3.63;;;;;;;;;;5030997;28;20186;-55
2022/04/19 12:43:01;;;;;;;4.60;4.13;;;;;;;;;;5029567;28;20240;-55
2022/04/19 12:45:37;;;;;;;3.93;3.63;;;;;;;;;;5029477;28;20218;-55
2022/04/19 12:48:04;;;;;;;4.27;3.87;;;;;;;;;;5028776;28;20220;-54
2022/04/19 12:50:31;;;;;;;4.53;4.03;;;;;;;;;;5028926;28;20175;-54
2022/04/19 12:52:58;;;;;;;5.37;4.30;;;;;;;;;;5029313;28;20937;-55
2022/04/19 12:55:28;;;;;;;4.67;3.93;;;;;;;;;;5029213;28;20188;-55
2022/04/19 12:58:08;;;;;;;5.17;3.97;;;;;;;;;;5028891;28;20627;-54
2022/04/19 13:00:35;;;;;;;4.00;3.40;;;;;;;;;;5030448;28;20177;-54
2022/04/19 13:03:01;;;;;;;5.27;3.63;;;;;;;;;;5028326;28;20190;-55
2022/04/19 13:12:16;;;;;;;4.60;3.77;;;;;;;;;;5028744;28;20209;-56
2022/04/19 13:13:44;;;;;;;3.53;3.20;;;;;;;;;;5030615;28;20173;-55
2022/04/19 13:16:10;;;;;;;4.57;4.17;;;;;;;;;;5029996;28;20186;-56
2022/04/19 13:18:37;;;;;;;4.43;3.73;;;;;;;;;;5027542;28;20201;-55
2022/04/19 13:21:05;;;;;;;4.17;3.80;;;;;;;;;;5030228;28;20218;-55
2022/04/19 13:23:31;;;;;;;3.90;3.60;;;;;;;;;;5028518;28;20641;-55
2022/04/19 13:25:57;;;;;;;3.37;3.07;;;;;;;;;;5028871;28;20181;-55
2022/04/19 13:28:25;;;;;;;4.87;3.80;;;;;;;;;;5028396;28;20202;-55
2022/04/19 13:30:52;;;;;;;3.47;3.13;;;;;;;;;;5028411;28;20197;-55
2022/04/19 13:33:18;;;;;;;3.57;3.17;;;;;;;;;;5028941;28;20186;-56
2022/04/19 13:35:44;;;;;;;3.07;2.83;;;;;;;;;;5029935;28;20197;-55
2022/04/19 13:38:23;;;;;;;4.47;3.50;;;;;;;;;;5029818;28;20185;-55
2022/04/19 13:40:49;;;;;;;4.10;3.80;;;;;;;;;;5029524;28;20257;-54
2022/04/19 13:43:15;;;;;;;3.63;3.30;;;;;;;;;;5029809;28;20180;-54
2022/04/19 13:45:42;;;;;;;3.53;3.23;;;;;;;;;;5029544;28;20197;-54
2022/04/19 13:48:09;;;;;;;3.97;3.57;;;;;;;;;;5027740;28;20268;-54
2022/04/19 13:50:35;;;;;;;3.80;3.50;;;;;;;;;;5028020;28;20174;-53
2022/04/19 13:53:02;;;;;;;3.80;3.50;;;;;;;;;;5029780;28;20185;-54
2022/04/19 13:55:28;;;;;;;3.70;3.40;;;;;;;;;;5028242;28;20579;-55
2022/04/19 13:57:55;;;;;;;5.33;3.17;;;;;;;;;;5027964;28;20256;-58
2022/04/19 14:00:23;;;;;;;3.97;3.67;;;;;;;;;;5029599;28;20200;-55
2022/04/19 14:02:50;;;;;;;4.07;3.23;;;;;;;;;;5028904;28;20177;-55
2022/04/19 14:05:16;;;;;;;3.93;3.53;;;;;;;;;;5027957;28;20202;-54
2022/04/19 14:07:42;;;;;;;3.53;3.23;;;;;;;;;;5028882;28;20175;-54
2022/04/19 14:10:10;;;;;;;3.93;3.63;;;;;;;;;;5029567;28;20175;-54
2022/04/19 14:12:36;;;;;;;3.80;3.50;;;;;;;;;;5027824;28;20189;-55
2022/04/19 14:15:03;;;;;;;4.20;3.30;;;;;;;;;;5028848;28;20181;-55
2022/04/19 14:17:30;;;;;;;5.40;3.30;;;;;;;;;;5027591;28;20174;-54
2022/04/19 14:19:56;;;;;;;6.23;3.63;;;;;;;;;;5028234;28;20174;-55
2022/04/19 14:22:24;;;;;;;5.97;5.57;;;;;;;;;;5027542;28;20272;-54
2022/04/19 14:24:50;;;;;;;3.90;3.60;;;;;;;;;;5027466;28;20681;-55
2022/04/19 14:27:17;;;;;;;4.07;3.10;;;;;;;;;;5028684;28;20177;-54
2022/04/19 14:35:12;;;;;;;3.17;2.97;;;;;;;;;;5028792;28;20694;-54
2022/04/19 14:37:39;;;;;;;4.80;3.50;;;;;;;;;;5028574;28;20549;-55
2022/04/19 14:40:05;;;;;;;3.40;3.20;;;;;;;;;;5027647;28;20178;-53
2022/04/19 14:42:32;;;;;;;6.00;3.77;;;;;;;;;;5028668;28;20211;-54
2022/04/19 14:44:58;;;;;;;3.77;3.37;;;;;;;;;;5028744;28;20198;-54
2022/04/19 14:47:24;;;;;;;4.47;4.07;;;;;;;;;;5028558;28;20227;-54
2022/04/19 14:49:50;;;;;;;4.43;3.80;;;;;;;;;;5027623;28;20180;-54
2022/04/19 14:52:21;;;;;;;3.73;3.43;;;;;;;;;;5026727;28;20668;-54
2022/04/19 14:54:49;;;;;;;3.33;3.10;;;;;;;;;;5027595;28;20174;-54
2022/04/19 14:57:16;;;;;;;4.80;3.47;;;;;;;;;;5026996;28;20212;-54
2022/04/19 14:59:43;;;;;;;3.60;3.30;;;;;;;;;;5028617;28;20186;-54
2022/04/19 15:02:09;;;;;;;3.37;3.17;;;;;;;;;;5027115;28;20185;-54
2022/04/19 15:04:37;;;;;;;3.40;3.20;;;;;;;;;;5025835;28;20199;-54
2022/04/19 15:07:03;;;;;;;3.30;3.10;;;;;;;;;;5027131;28;20173;-54
2022/04/19 15:09:30;;;;;;;3.63;3.23;;;;;;;;;;5027046;28;20228;-54
2022/04/19 15:12:04;;;;;;;3.40;3.10;;;;;;;;;;5025040;28;20186;-54
2022/04/19 15:14:34;;;;;;;3.43;3.13;;;;;;;;;;5014569;28;20171;-55
2022/04/19 15:17:00;;;;;;;3.20;2.90;;;;;;;;;;5027914;28;20244;-54
2022/04/19 15:19:27;;;;;;;3.93;3.37;;;;;;;;;;5025989;28;20176;-54
2022/04/19 15:21:53;;;;;;;3.20;3.00;;;;;;;;;;5028315;28;20183;-54
2022/04/19 15:24:19;;;;;;;3.40;3.10;;;;;;;;;;5026936;28;20231;-53
2022/04/19 15:26:47;;;;;;;4.40;3.03;;;;;;;;;;5028477;28;20514;-54
2022/04/19 15:29:13;;;;;;;3.63;3.30;;;;;;;;;;5026731;28;20207;-55
2022/04/19 15:31:39;;;;;;;3.87;3.23;;;;;;;;;;5027940;28;20279;-55
2022/04/19 15:34:05;;;;;;;3.07;2.87;;;;;;;;;;5027359;28;20188;-55
2022/04/19 15:36:32;;;;;;;3.27;2.97;;;;;;;;;;5026835;28;20663;-54